Flight Track Log - Related Links

Times and Time Zones

All times are in EDT time to prevent confusion due to time zone crossing. See the DAL3698 flight status page for this flight to view local times or setup timezone preferences in your user account.

Time Position Orientation Groundspeed Altitude Reporting Facility
EDT Latitude Longitude Course Direction KTS MPH feet Rate Location/Type
Mon 07:28:12 AM 42.8467 -84.4958 279° West 217 250 4,300  Level Minneapolis Center
Mon 07:29:12 AM 42.8558 -84.5803 278° West 258 297 5,500 1,826 Climbing Minneapolis Center
Mon 07:30:07 AM 42.8492 -84.6825 265° West 271 312 7,800 2,308 Climbing Chicago Center
Mon 07:31:00 AM 42.7624 -85.2608 276° West  Level FlightAware Approximate
Mon 07:31:09 AM 42.8414 -84.7836 264° West 271 312 10,000  Level Chicago Center
Mon 07:32:00 AM 42.7757 -85.4062 278° West  Level FlightAware Approximate
Mon 07:32:10 AM 42.8358 -84.8931 266° West 286 329 11,500  Level Chicago Center
Mon 07:33:00 AM 42.7914 -85.5512 279° West  Level FlightAware Approximate
Mon 07:33:11 AM 42.8667 -85.0061 290° West 315 362 12,700  Level Chicago Center
Mon 07:34:13 AM 42.8983 -85.1300 289° West 339 390 13,800 1,268 Climbing Chicago Center
Mon 07:35:14 AM 42.9403 -85.2806 291° West 353 406 15,300 1,366 Climbing Chicago Center
Mon 07:36:16 AM 42.9747 -85.4086 290° West 358 412 16,600 1,220 Climbing Chicago Center
Mon 07:37:17 AM 43.0092 -85.5381 290° West 363 418 17,800 1,122 Climbing Chicago Center
Mon 07:38:19 AM 43.0444 -85.6711 290° West 370 426 18,900 1,073 Climbing Chicago Center
Mon 07:39:20 AM 43.0800 -85.8033 290° West 375 432 20,000 976 Climbing Chicago Center
Mon 07:40:22 AM 43.1150 -85.9361 290° West 379 436 20,900 919 Climbing Chicago Center
Mon 07:41:24 AM 43.1564 -86.0958 290° West 383 441 21,900 732 Climbing Chicago Center
Mon 07:42:25 AM 43.1911 -86.2339 289° West 387 445 22,400 492 Climbing Chicago Center
Mon 07:43:26 AM 43.2267 -86.3717 290° West 387 445 22,900 488 Climbing Chicago Center
Mon 07:44:28 AM 43.2636 -86.5136 290° West 399 459 23,400 488 Climbing Chicago Center
Mon 07:45:29 AM 43.2997 -86.6600 289° West 404 465 23,900 293 Climbing Chicago Center
Mon 07:46:31 AM 43.3367 -86.8044 289° West 406 467 24,000 49 Climbing Chicago Center
Mon 07:47:32 AM 43.3811 -86.9847 289° West 417 480 24,000  Level Chicago Center
Mon 07:48:34 AM 43.4208 -87.1372 290° West 423 487 24,000  Level Chicago Center
Mon 07:49:36 AM 43.4589 -87.2933 289° West 430 495 24,000  Level Chicago Center
Mon 07:50:37 AM 43.4950 -87.4414 289° West 429 494 24,000  Level Chicago Center
Mon 07:51:39 AM 43.5406 -87.6269 289° West 437 503 24,000  Level Chicago Center
Mon 07:52:40 AM 43.5786 -87.7833 289° West 432 497 24,000  Level Chicago Center
Mon 07:53:42 AM 43.6164 -87.9417 288° West 435 501 24,000  Level Chicago Center
Mon 07:54:34 AM 43.6467 -88.0736 288° West 435 501 24,000  Level Minneapolis Center
Mon 07:55:35 AM 43.6844 -88.2300 289° West 433 498 24,000  Level Minneapolis Center
Mon 07:56:36 AM 43.7219 -88.3886 288° West 437 503 24,000  Level Minneapolis Center
Mon 07:57:37 AM 43.7594 -88.5472 288° West 438 504 24,000  Level Minneapolis Center
Mon 07:58:37 AM 43.8019 -88.7336 288° West 438 504 24,000  Level Minneapolis Center
Mon 07:59:38 AM 43.8394 -88.8928 288° West 437 503 24,000  Level Minneapolis Center
Mon 08:00:39 AM 43.8753 -89.0517 287° West 436 502 24,000  Level Minneapolis Center
Mon 08:01:40 AM 43.9094 -89.2111 287° West 432 497 24,000  Level Minneapolis Center
Mon 08:02:41 AM 43.9472 -89.3719 288° West 437 503 24,000  Level Minneapolis Center
Mon 08:03:42 AM 43.9828 -89.5322 287° West 436 502 24,000  Level Minneapolis Center
Mon 08:04:43 AM 44.0267 -89.6906 291° West 438 504 24,000  Level Minneapolis Center
Mon 08:05:44 AM 44.0806 -89.8456 296° West 444 511 24,000  Level Minneapolis Center
Mon 08:06:45 AM 44.1328 -90.0014 295° West 446 513 24,000  Level Minneapolis Center
Mon 08:07:46 AM 44.1869 -90.1583 296° West 448 516 24,000  Level Minneapolis Center
Mon 08:08:47 AM 44.2397 -90.3153 295° West 446 513 24,000  Level Minneapolis Center
Mon 08:09:48 AM 44.3011 -90.4994 295° West 448 516 24,000  Level Minneapolis Center
Mon 08:10:49 AM 44.3550 -90.6569 296° West 449 517 24,000  Level Minneapolis Center
Mon 08:11:50 AM 44.4067 -90.8164 294° West 450 518 24,000  Level Minneapolis Center
Mon 08:12:51 AM 44.4533 -90.9625 294° West 451 519 24,000  Level Minneapolis Center
Mon 08:13:53 AM 44.5047 -91.1203 295° West 448 516 24,000 -195 Level Minneapolis Center
Mon 08:14:54 AM 44.5553 -91.2786 294° West 448 516 23,600 -1,426 Descending Minneapolis Center
Mon 08:15:55 AM 44.6164 -91.4692 294° West 448 516 21,100 -2,066 Descending Minneapolis Center
Mon 08:16:56 AM 44.6558 -91.5944 294° West 445 512 19,400 -2,213 Descending Minneapolis Center
Mon 08:17:57 AM 44.7144 -91.7783 294° West 435 501 16,600 -2,311 Descending Minneapolis Center
Mon 08:18:58 AM 44.7631 -91.9303 294° West 429 494 14,700 -1,805 Descending Minneapolis Center
Mon 08:20:00 AM 44.8075 -92.0744 294° West 408 470 12,900 -1,707 Descending Minneapolis Center
Mon 08:21:01 AM 44.8522 -92.2167 294° West 399 459 11,200 -1,377 Descending Minneapolis Center
Mon 08:22:02 AM 44.8778 -92.3544 285° West 369 425 10,100 -590 Descending Minneapolis Center
Mon 08:23:03 AM 44.8533 -92.4864 255° West 348 400 10,000 -49 Descending Minneapolis Center
Mon 08:24:05 AM 44.8294 -92.6156 255° West 339 390 10,000  Level Minneapolis Center
Mon 08:25:06 AM 44.8006 -92.7675 255° West 340 391 10,000  Level Minneapolis Center
Mon 08:26:07 AM 44.7764 -92.8925 255° West 334 384 10,000  Level Minneapolis Center
Mon 08:27:09 AM 44.7822 -93.0258 274° West 348 400 10,000 -49 Level Minneapolis Center
Mon 08:28:10 AM 44.7953 -93.1519 278° West 332 382 9,900 -443 Descending Minneapolis Center
Mon 08:29:11 AM 44.8069 -93.2572 279° West 286 329 9,100 -976 Descending Minneapolis Center
Mon 08:30:13 AM 44.8364 -93.3817 288° West 290 334 7,900 -1,220 Descending Minneapolis Center
Mon 08:31:14 AM 44.8739 -93.4778 299° West 283 326 6,600 -1,317 Descending Minneapolis Center
Mon 08:32:16 AM 44.9228 -93.5631 309° West 280 322 5,200 -711 Descending Minneapolis Center
Mon 08:33:29 AM 44.9878 -93.5428 12° North 260 299 5,000 -444 Descending Minneapolis Center
Mon 08:34:31 AM 44.9819 -93.4444 95° East 222 255 4,200 -878 Descending Minneapolis Center
Mon 08:35:32 AM 44.9519 -93.3833 125° Southeast 186 214 3,200 -984 Descending Minneapolis Center

Login

Don't have an account? Register now (free) for customized features, flight alerts, and more!